Terminal Aerodrome Forecast
Issued by NWS Tallahassee, FL

Home | Current Version | Previous Version | Text Only | Print | Product List | Glossary On
Versions: 1 2 3 4 5 6 7 8 9 10 11 12 13 14 15 16 17 18 19 20 21
953
FTUS42 KTAE 202320
TAFTLH
TAF
KTLH 202320Z 2100/2124 22010KT P6SM VCSH BKN030
     FM210200 19004KT P6SM BKN005 OVC015
     FM210500 18005KT 3SM BR OVC003
     FM211000 17005KT 1SM RA BR OVC001
     FM211400 19012G18KT 2SM RA OVC015
     FM211700 20011G18KT 6SM TSRA OVC025CB=

USA.gov is the U.S. government's official web portal to all federal, state and local government web resources and services.